Time;durP1;ratioP1;P1;durP2;ratioP2;P2;SDS_P1;SDS_P2;PMS_P1;PMS_P2;Temp;Humidity;BMP_temperature;BMP_pressure;BME280_temperature;BME280_humidity;BME280_pressure;Samples;Min_cycle;Max_cycle;Signal;HPM_P1;HPM_P2
2022/06/04 00:00:31;;;;;;;3.83;1.20;;;;;;;;;;4999421;28;20045;-65
2022/06/04 00:02:57;;;;;;;3.38;1.00;;;;;;;;;;5000441;28;20144;-65
2022/06/04 00:05:29;;;;;;;4.47;1.17;;;;;;;;;;5002177;28;20049;-65
2022/06/04 00:07:57;;;;;;;3.78;1.00;;;;;;;;;;4998135;28;20046;-66
2022/06/04 00:15:56;;;;;;;4.72;1.30;;;;;;;;;;4997355;28;22083;-64
2022/06/04 00:18:23;;;;;;;4.32;1.15;;;;;;;;;;5011024;28;20069;-67
2022/06/04 00:20:50;;;;;;;3.72;1.13;;;;;;;;;;4997321;28;20072;-68
2022/06/04 00:23:17;;;;;;;3.40;1.00;;;;;;;;;;5010552;28;20050;-68
2022/06/04 00:25:47;;;;;;;4.65;1.15;;;;;;;;;;4994763;28;20038;-67
2022/06/04 00:28:14;;;;;;;3.10;0.90;;;;;;;;;;4997308;28;20037;-67
2022/06/04 00:30:41;;;;;;;3.10;1.10;;;;;;;;;;4995747;28;20043;-66
2022/06/04 00:33:10;;;;;;;6.20;1.20;;;;;;;;;;4994839;28;20057;-68
2022/06/04 00:35:37;;;;;;;7.20;1.30;;;;;;;;;;4994538;28;20042;-65
2022/06/04 00:38:06;;;;;;;3.88;0.95;;;;;;;;;;4997068;28;20046;-67
2022/06/04 00:40:41;;;;;;;5.80;1.20;;;;;;;;;;4995908;28;20045;-63
2022/06/04 00:43:08;;;;;;;7.22;1.42;;;;;;;;;;4996284;28;20498;-63
2022/06/04 00:45:38;;;;;;;10.35;1.25;;;;;;;;;;4994894;28;20065;-63
2022/06/04 00:48:05;;;;;;;7.32;1.25;;;;;;;;;;4997094;28;20044;-66
2022/06/04 00:50:33;;;;;;;7.88;1.60;;;;;;;;;;4996044;28;20464;-66
2022/06/04 00:53:01;;;;;;;6.20;1.20;;;;;;;;;;4995539;28;20038;-66
2022/06/04 00:55:32;;;;;;;4.97;1.08;;;;;;;;;;4995587;28;20042;-67
2022/06/04 00:57:58;;;;;;;4.13;1.00;;;;;;;;;;4997362;28;20053;-67
2022/06/04 01:00:35;;;;;;;8.23;1.45;;;;;;;;;;4995319;28;20052;-66
2022/06/04 01:03:13;;;;;;;5.50;1.27;;;;;;;;;;4995102;28;20054;-67
2022/06/04 01:05:50;;;;;;;3.65;1.10;;;;;;;;;;4995574;28;20697;-67
2022/06/04 01:08:19;;;;;;;5.15;1.30;;;;;;;;;;4996966;28;20045;-66
2022/06/04 01:11:04;;;;;;;7.10;1.20;;;;;;;;;;4996468;28;20038;-67
2022/06/04 01:13:49;;;;;;;7.20;1.17;;;;;;;;;;4995910;28;20030;-67
2022/06/04 01:16:27;;;;;;;5.53;1.10;;;;;;;;;;5028534;28;20042;-66
2022/06/04 01:18:53;;;;;;;8.35;1.20;;;;;;;;;;5011004;28;20142;-65
2022/06/04 01:21:20;;;;;;;4.25;1.00;;;;;;;;;;4997646;28;20034;-65
2022/06/04 01:23:49;;;;;;;5.13;1.13;;;;;;;;;;5011796;28;20077;-67
2022/06/04 01:26:18;;;;;;;4.45;1.30;;;;;;;;;;4997515;28;20181;-66
2022/06/04 01:28:59;;;;;;;7.78;1.08;;;;;;;;;;4998116;28;20092;-67
2022/06/04 01:31:28;;;;;;;5.07;1.30;;;;;;;;;;4997467;28;20073;-65
2022/06/04 01:34:00;;;;;;;5.70;1.20;;;;;;;;;;5012636;28;20038;-65
2022/06/04 01:36:38;;;;;;;5.32;0.95;;;;;;;;;;5016085;28;20049;-66
2022/06/04 01:39:10;;;;;;;5.53;1.20;;;;;;;;;;5000968;28;20038;-67
2022/06/04 01:41:40;;;;;;;3.67;0.80;;;;;;;;;;4998789;28;20441;-66
2022/06/04 01:44:13;;;;;;;2.42;0.80;;;;;;;;;;5000532;28;20069;-65
2022/06/04 01:46:42;;;;;;;3.63;1.00;;;;;;;;;;5000308;28;20051;-65
2022/06/04 01:49:11;;;;;;;4.03;0.90;;;;;;;;;;5000629;28;20053;-64
2022/06/04 01:51:38;;;;;;;3.00;0.90;;;;;;;;;;4998262;28;20030;-66
2022/06/04 01:54:12;;;;;;;3.70;0.80;;;;;;;;;;4999581;28;20041;-66
2022/06/04 01:56:42;;;;;;;6.63;1.20;;;;;;;;;;4999445;28;20030;-66
2022/06/04 01:59:11;;;;;;;4.05;1.10;;;;;;;;;;5001895;28;20041;-65
2022/06/04 02:01:38;;;;;;;5.18;1.08;;;;;;;;;;5002087;28;20094;-65
2022/06/04 02:04:16;;;;;;;3.30;0.82;;;;;;;;;;5001293;28;20405;-66
2022/06/04 02:09:55;;;;;;;6.40;1.20;;;;;;;;;;4996543;28;20533;-65
2022/06/04 02:12:22;;;;;;;2.53;0.80;;;;;;;;;;4996919;28;20081;-66
2022/06/04 02:14:49;;;;;;;4.28;0.98;;;;;;;;;;5004950;28;20042;-67
2022/06/04 02:17:19;;;;;;;4.18;0.90;;;;;;;;;;5001082;28;20029;-66
2022/06/04 02:19:46;;;;;;;4.70;1.45;;;;;;;;;;4999379;28;20072;-67
2022/06/04 02:22:13;;;;;;;5.60;1.20;;;;;;;;;;4999774;28;20099;-66
2022/06/04 02:24:40;;;;;;;4.22;1.00;;;;;;;;;;4997814;28;20038;-65
2022/06/04 02:27:08;;;;;;;1.98;0.60;;;;;;;;;;5000451;28;20111;-66
2022/06/04 02:29:38;;;;;;;3.20;1.10;;;;;;;;;;5000882;28;20120;-66
2022/06/04 02:32:15;;;;;;;3.45;0.95;;;;;;;;;;5000073;28;20164;-65
2022/06/04 02:34:47;;;;;;;5.13;1.00;;;;;;;;;;4999326;28;20050;-65
2022/06/04 02:37:20;;;;;;;7.20;1.23;;;;;;;;;;5000942;28;20072;-66
2022/06/04 02:39:56;;;;;;;4.30;1.10;;;;;;;;;;5000562;28;20038;-66
2022/06/04 02:42:32;;;;;;;3.63;1.02;;;;;;;;;;4999375;28;20050;-66
2022/06/04 02:45:20;;;;;;;3.72;1.02;;;;;;;;;;5014057;28;20037;-66
2022/06/04 02:47:50;;;;;;;10.05;1.13;;;;;;;;;;4999079;28;20120;-65
2022/06/04 02:50:25;;;;;;;2.72;0.90;;;;;;;;;;5014905;28;20037;-66
2022/06/04 02:52:55;;;;;;;3.10;0.82;;;;;;;;;;4998450;28;20038;-66
2022/06/04 02:55:24;;;;;;;2.80;0.90;;;;;;;;;;4996840;28;20042;-67
2022/06/04 02:57:52;;;;;;;3.80;0.80;;;;;;;;;;4998869;28;20049;-65
2022/06/04 03:00:20;;;;;;;3.38;1.02;;;;;;;;;;4998925;28;20491;-65
2022/06/04 03:02:47;;;;;;;3.63;0.90;;;;;;;;;;4997053;28;20145;-65
2022/06/04 03:05:19;;;;;;;4.20;1.00;;;;;;;;;;4997079;28;20482;-66
2022/06/04 03:07:47;;;;;;;4.05;0.90;;;;;;;;;;4996703;28;20141;-65
2022/06/04 03:10:16;;;;;;;2.90;0.90;;;;;;;;;;4994826;28;20033;-66
2022/06/04 03:12:43;;;;;;;5.00;1.10;;;;;;;;;;4996705;28;20514;-65
2022/06/04 03:15:10;;;;;;;3.83;1.00;;;;;;;;;;4997153;28;20030;-62
2022/06/04 03:17:38;;;;;;;3.30;1.08;;;;;;;;;;4996989;28;20498;-66
2022/06/04 03:20:07;;;;;;;3.30;1.00;;;;;;;;;;5002621;28;22322;-67
2022/06/04 03:22:34;;;;;;;2.65;0.77;;;;;;;;;;4990697;28;20050;-67
2022/06/04 03:25:01;;;;;;;3.72;0.93;;;;;;;;;;5003554;28;20030;-66
2022/06/04 03:27:27;;;;;;;3.63;1.17;;;;;;;;;;5001384;28;20506;-65
2022/06/04 03:29:54;;;;;;;3.60;1.10;;;;;;;;;;5002497;28;20062;-66
2022/06/04 03:32:21;;;;;;;6.50;1.10;;;;;;;;;;5004898;28;20046;-66
2022/06/04 03:34:47;;;;;;;5.10;1.10;;;;;;;;;;5005292;28;20541;-64
2022/06/04 03:37:14;;;;;;;2.78;0.90;;;;;;;;;;5004304;28;20045;-65
2022/06/04 03:39:41;;;;;;;3.65;1.10;;;;;;;;;;5003569;28;20049;-65
2022/06/04 03:42:07;;;;;;;3.63;0.90;;;;;;;;;;5003973;28;20112;-65
2022/06/04 03:44:34;;;;;;;4.90;1.00;;;;;;;;;;5001869;28;20044;-65
2022/06/04 03:47:01;;;;;;;3.60;1.00;;;;;;;;;;5005263;28;20534;-65
2022/06/04 03:49:27;;;;;;;3.72;1.00;;;;;;;;;;5000806;28;20037;-66
2022/06/04 03:51:54;;;;;;;3.38;1.00;;;;;;;;;;5000238;28;20061;-65
2022/06/04 03:54:52;;;;;;;2.42;0.80;;;;;;;;;;5000154;28;20171;-66
2022/06/04 03:59:53;;;;;;;3.38;1.00;;;;;;;;;;4998157;28;20544;-66
2022/06/04 04:02:20;;;;;;;3.33;0.90;;;;;;;;;;5012077;28;20148;-65
2022/06/04 04:04:47;;;;;;;4.40;1.20;;;;;;;;;;4998058;28;21011;-65
2022/06/04 04:07:14;;;;;;;4.47;0.80;;;;;;;;;;4998469;28;20042;-66
2022/06/04 04:09:41;;;;;;;5.47;0.98;;;;;;;;;;4998151;28;22207;-66
2022/06/04 04:12:07;;;;;;;6.25;0.98;;;;;;;;;;4997199;28;20931;-65
2022/06/04 04:14:34;;;;;;;3.38;1.02;;;;;;;;;;4999983;28;20088;-66
2022/06/04 04:17:01;;;;;;;4.90;1.35;;;;;;;;;;5002660;28;20160;-67
2022/06/04 04:19:30;;;;;;;3.88;1.10;;;;;;;;;;5000228;28;20030;-67
2022/06/04 04:21:57;;;;;;;3.65;1.00;;;;;;;;;;5000135;28;20460;-66
2022/06/04 04:24:23;;;;;;;9.23;1.00;;;;;;;;;;5000855;28;20033;-66
2022/06/04 04:26:50;;;;;;;3.50;1.00;;;;;;;;;;5015153;28;20050;-66
2022/06/04 04:29:17;;;;;;;4.93;0.82;;;;;;;;;;5001695;28;20040;-65
2022/06/04 04:31:43;;;;;;;3.35;1.10;;;;;;;;;;4998107;28;20049;-66
2022/06/04 04:34:10;;;;;;;4.07;0.98;;;;;;;;;;4998391;28;20060;-66
2022/06/04 04:36:37;;;;;;;4.35;1.10;;;;;;;;;;4995988;28;20041;-65
2022/06/04 04:39:04;;;;;;;3.95;0.85;;;;;;;;;;4997724;28;20042;-66
2022/06/04 04:41:30;;;;;;;6.45;1.05;;;;;;;;;;4998742;28;20382;-66
2022/06/04 04:43:57;;;;;;;6.32;1.00;;;;;;;;;;5000704;28;20080;-67
2022/06/04 04:46:23;;;;;;;4.85;1.10;;;;;;;;;;5000399;28;20049;-62
2022/06/04 04:48:50;;;;;;;8.68;1.30;;;;;;;;;;5002316;28;20041;-65
2022/06/04 04:51:19;;;;;;;4.10;1.10;;;;;;;;;;5002612;28;20105;-66
2022/06/04 04:53:47;;;;;;;6.70;1.17;;;;;;;;;;4997201;28;20048;-62
2022/06/04 04:56:20;;;;;;;5.03;1.85;;;;;;;;;;5024775;28;20056;-64
2022/06/04 04:58:47;;;;;;;13.68;1.83;;;;;;;;;;4999298;28;20058;-64
2022/06/04 05:01:22;;;;;;;6.47;1.50;;;;;;;;;;4999014;28;20038;-66
2022/06/04 05:03:49;;;;;;;3.92;1.20;;;;;;;;;;4998092;28;20116;-67
2022/06/04 05:06:16;;;;;;;5.72;1.00;;;;;;;;;;5028835;28;20172;-66
2022/06/04 05:08:43;;;;;;;5.05;1.17;;;;;;;;;;4998058;28;20038;-67
2022/06/04 05:11:16;;;;;;;4.75;1.23;;;;;;;;;;5001228;28;20860;-67
2022/06/04 05:13:43;;;;;;;6.88;1.20;;;;;;;;;;5001466;28;20033;-65
2022/06/04 05:16:10;;;;;;;8.63;1.50;;;;;;;;;;5001586;28;20046;-66
2022/06/04 05:18:37;;;;;;;3.20;1.20;;;;;;;;;;5000670;28;20100;-67
2022/06/04 05:21:11;;;;;;;5.72;1.20;;;;;;;;;;4999656;28;20685;-67
2022/06/04 05:23:38;;;;;;;9.02;1.27;;;;;;;;;;4999576;28;20775;-66
2022/06/04 05:26:05;;;;;;;6.55;1.15;;;;;;;;;;4999601;28;20042;-66
2022/06/04 05:28:31;;;;;;;4.65;1.10;;;;;;;;;;4999461;28;20597;-64
2022/06/04 05:30:58;;;;;;;12.13;1.15;;;;;;;;;;4999909;28;20049;-67
2022/06/04 05:33:25;;;;;;;3.17;1.10;;;;;;;;;;4999841;28;20089;-66
2022/06/04 05:35:51;;;;;;;4.50;1.30;;;;;;;;;;4999006;28;20074;-66
2022/06/04 05:38:18;;;;;;;4.80;1.00;;;;;;;;;;4998842;28;20041;-67
2022/06/04 05:40:45;;;;;;;7.30;1.20;;;;;;;;;;4999793;28;20504;-66
2022/06/04 05:43:12;;;;;;;5.90;1.35;;;;;;;;;;4998954;28;20050;-66
2022/06/04 05:45:38;;;;;;;6.70;1.23;;;;;;;;;;4999874;28;20658;-66
2022/06/04 05:48:05;;;;;;;7.20;1.45;;;;;;;;;;4999023;28;20532;-66
2022/06/04 05:50:32;;;;;;;7.13;1.17;;;;;;;;;;4998776;28;20281;-65
2022/06/04 05:52:58;;;;;;;5.05;1.25;;;;;;;;;;4998744;28;20559;-67
2022/06/04 05:55:26;;;;;;;5.22;1.20;;;;;;;;;;4998347;28;20072;-66
2022/06/04 05:57:52;;;;;;;11.20;1.63;;;;;;;;;;4999356;28;20653;-66
2022/06/04 06:00:19;;;;;;;8.05;1.40;;;;;;;;;;4999300;28;20061;-66
2022/06/04 06:02:46;;;;;;;5.43;0.90;;;;;;;;;;4997908;28;20057;-66
2022/06/04 06:05:12;;;;;;;3.72;1.10;;;;;;;;;;4998550;28;20866;-67
2022/06/04 06:07:39;;;;;;;6.38;1.38;;;;;;;;;;4998078;28;20402;-67
2022/06/04 06:10:06;;;;;;;4.45;1.35;;;;;;;;;;4998295;28;20038;-67
2022/06/04 06:12:32;;;;;;;10.13;1.77;;;;;;;;;;4997296;28;20438;-66
2022/06/04 06:14:59;;;;;;;3.92;1.45;;;;;;;;;;4998609;28;20129;-65
2022/06/04 06:17:26;;;;;;;5.03;1.42;;;;;;;;;;4996769;28;20049;-67
2022/06/04 06:19:53;;;;;;;5.75;1.80;;;;;;;;;;4998302;28;20973;-67
2022/06/04 06:22:19;;;;;;;6.82;2.00;;;;;;;;;;4997366;28;20160;-67
2022/06/04 06:24:46;;;;;;;9.23;2.95;;;;;;;;;;5029513;28;20097;-68
2022/06/04 06:27:13;;;;;;;6.60;2.20;;;;;;;;;;4998983;28;20050;-66
2022/06/04 06:29:39;;;;;;;7.15;1.70;;;;;;;;;;4998072;28;20065;-65
2022/06/04 06:32:06;;;;;;;4.35;1.10;;;;;;;;;;4997457;28;20041;-67
2022/06/04 06:34:33;;;;;;;5.97;1.15;;;;;;;;;;4996698;28;20161;-65
2022/06/04 06:37:00;;;;;;;4.88;1.35;;;;;;;;;;4998874;28;20041;-65
2022/06/04 06:39:27;;;;;;;8.43;1.42;;;;;;;;;;4997246;28;20512;-65
2022/06/04 06:41:53;;;;;;;4.03;1.30;;;;;;;;;;4997696;28;20069;-65
2022/06/04 06:44:22;;;;;;;5.07;1.23;;;;;;;;;;4998405;28;20124;-66
2022/06/04 06:46:49;;;;;;;3.22;1.10;;;;;;;;;;4999943;28;20033;-67
2022/06/04 06:49:19;;;;;;;4.30;1.10;;;;;;;;;;4999885;28;20148;-67
2022/06/04 06:51:50;;;;;;;10.43;1.20;;;;;;;;;;4998220;28;20034;-65
2022/06/04 06:54:19;;;;;;;5.05;1.08;;;;;;;;;;4998198;28;20398;-66
2022/06/04 06:56:47;;;;;;;6.20;1.10;;;;;;;;;;4998448;28;20145;-65
2022/06/04 06:59:13;;;;;;;5.80;1.33;;;;;;;;;;4998312;28;20030;-65
2022/06/04 07:01:42;;;;;;;3.90;1.00;;;;;;;;;;4996561;28;20084;-65
2022/06/04 07:04:09;;;;;;;4.05;1.00;;;;;;;;;;4999258;28;20058;-66
2022/06/04 07:06:37;;;;;;;5.18;1.30;;;;;;;;;;4998785;28;20084;-65
2022/06/04 07:09:05;;;;;;;2.75;0.93;;;;;;;;;;4999074;28;20049;-66
2022/06/04 07:11:32;;;;;;;3.13;0.98;;;;;;;;;;4997798;28;20096;-65
2022/06/04 07:13:59;;;;;;;2.80;0.80;;;;;;;;;;4997675;28;20057;-64
2022/06/04 07:16:26;;;;;;;4.50;1.00;;;;;;;;;;4999328;28;20053;-65
2022/06/04 07:18:52;;;;;;;3.10;0.85;;;;;;;;;;5000696;28;20349;-65
2022/06/04 07:21:20;;;;;;;3.08;1.10;;;;;;;;;;5000269;28;20046;-64
2022/06/04 07:23:47;;;;;;;5.15;0.80;;;;;;;;;;4999535;28;20053;-65
2022/06/04 07:26:14;;;;;;;3.33;1.00;;;;;;;;;;5000800;28;20072;-65
2022/06/04 07:28:41;;;;;;;3.00;0.77;;;;;;;;;;5000204;28;20042;-64
2022/06/04 07:31:09;;;;;;;3.85;0.80;;;;;;;;;;5000584;28;20771;-64
2022/06/04 07:33:35;;;;;;;8.90;1.00;;;;;;;;;;4998697;28;20124;-64
2022/06/04 07:36:02;;;;;;;3.47;0.98;;;;;;;;;;4999701;28;20109;-64
2022/06/04 07:38:29;;;;;;;2.58;0.77;;;;;;;;;;4998057;28;20042;-64
2022/06/04 07:40:56;;;;;;;7.00;1.00;;;;;;;;;;4998670;28;20045;-64
2022/06/04 07:43:22;;;;;;;2.50;0.88;;;;;;;;;;4999879;28;21846;-65
2022/06/04 07:45:49;;;;;;;7.57;1.00;;;;;;;;;;4998433;28;20057;-65
2022/06/04 07:48:15;;;;;;;9.57;1.10;;;;;;;;;;4997906;28;20030;-63
2022/06/04 07:50:42;;;;;;;3.95;0.95;;;;;;;;;;4996850;28;20083;-64
2022/06/04 07:53:09;;;;;;;2.13;0.70;;;;;;;;;;4996994;28;20111;-64
2022/06/04 07:55:38;;;;;;;3.00;0.88;;;;;;;;;;4998635;28;20037;-64
2022/06/04 07:58:05;;;;;;;3.50;1.00;;;;;;;;;;4997368;28;20164;-64
2022/06/04 08:00:37;;;;;;;4.50;1.08;;;;;;;;;;4996805;28;20060;-64
2022/06/04 08:03:03;;;;;;;4.50;1.00;;;;;;;;;;4997587;28;20054;-65
2022/06/04 08:05:30;;;;;;;3.30;1.20;;;;;;;;;;4997419;28;20046;-64
2022/06/04 08:07:57;;;;;;;5.68;1.00;;;;;;;;;;4998377;28;20046;-65
2022/06/04 08:10:23;;;;;;;4.05;1.00;;;;;;;;;;4995329;28;21750;-64
2022/06/04 08:13:02;;;;;;;3.30;1.13;;;;;;;;;;4997775;28;20030;-65
2022/06/04 08:15:28;;;;;;;3.45;0.93;;;;;;;;;;4996347;28;20034;-64
2022/06/04 08:17:55;;;;;;;4.85;1.20;;;;;;;;;;5028304;28;20100;-65
2022/06/04 08:20:22;;;;;;;4.00;1.10;;;;;;;;;;4997602;28;20057;-65
2022/06/04 08:22:49;;;;;;;3.55;1.00;;;;;;;;;;4997147;28;20103;-65
2022/06/04 08:25:16;;;;;;;6.75;1.10;;;;;;;;;;4997276;28;20041;-65
2022/06/04 08:27:44;;;;;;;3.20;1.00;;;;;;;;;;4996000;28;20061;-65
2022/06/04 08:30:11;;;;;;;5.32;1.20;;;;;;;;;;4998351;28;20579;-65
2022/06/04 08:32:38;;;;;;;3.42;1.20;;;;;;;;;;5027542;28;20082;-65
2022/06/04 08:35:05;;;;;;;6.05;1.00;;;;;;;;;;4997697;28;20105;-65
2022/06/04 08:37:31;;;;;;;5.03;1.13;;;;;;;;;;5029639;28;20449;-65
2022/06/04 08:39:59;;;;;;;3.50;1.20;;;;;;;;;;4999019;28;20046;-65
2022/06/04 08:42:51;;;;;;;3.95;1.13;;;;;;;;;;4997722;28;20054;-65
2022/06/04 08:45:17;;;;;;;3.75;1.08;;;;;;;;;;5000676;28;20056;-65
2022/06/04 08:47:47;;;;;;;4.50;1.05;;;;;;;;;;5002383;28;20049;-65
2022/06/04 08:50:17;;;;;;;3.50;1.13;;;;;;;;;;5002452;28;20057;-65
2022/06/04 08:52:54;;;;;;;3.10;1.00;;;;;;;;;;4998706;28;20037;-65
2022/06/04 08:58:18;;;;;;;7.07;1.27;;;;;;;;;;4995857;28;20045;-65
2022/06/04 09:01:01;;;;;;;3.25;1.02;;;;;;;;;;4995018;28;20069;-65
2022/06/04 09:03:35;;;;;;;4.00;1.23;;;;;;;;;;5009308;28;20054;-65
2022/06/04 09:06:02;;;;;;;2.95;1.10;;;;;;;;;;4996117;28;20963;-65
2022/06/04 09:08:51;;;;;;;4.75;1.00;;;;;;;;;;4995763;28;20046;-64
2022/06/04 09:11:24;;;;;;;5.43;1.13;;;;;;;;;;4996453;28;20505;-65
2022/06/04 09:13:56;;;;;;;3.90;1.10;;;;;;;;;;4997739;28;20036;-65
2022/06/04 09:16:36;;;;;;;4.60;1.42;;;;;;;;;;4997122;28;20576;-65
2022/06/04 09:19:05;;;;;;;4.60;1.15;;;;;;;;;;4998090;28;20565;-64
2022/06/04 09:21:36;;;;;;;5.68;1.25;;;;;;;;;;4995391;28;20038;-65
2022/06/04 09:24:04;;;;;;;5.50;1.65;;;;;;;;;;4996243;28;20062;-66
2022/06/04 09:26:38;;;;;;;3.08;1.20;;;;;;;;;;4996058;28;20082;-66
2022/06/04 09:29:20;;;;;;;4.70;1.10;;;;;;;;;;4996382;28;20099;-65
2022/06/04 09:31:46;;;;;;;8.68;1.42;;;;;;;;;;4994408;28;20137;-65
2022/06/04 09:34:51;;;;;;;5.07;1.48;;;;;;;;;;4995855;28;20034;-65
2022/06/04 09:37:18;;;;;;;3.92;1.20;;;;;;;;;;5018443;28;20072;-65
2022/06/04 09:39:47;;;;;;;3.45;1.30;;;;;;;;;;5019132;28;20343;-65
2022/06/04 09:42:13;;;;;;;6.70;1.52;;;;;;;;;;5006384;28;20049;-65
2022/06/04 09:45:01;;;;;;;5.45;1.60;;;;;;;;;;4993926;28;20215;-65
2022/06/04 09:47:27;;;;;;;4.18;1.20;;;;;;;;;;4998446;28;20049;-65
2022/06/04 09:50:00;;;;;;;4.38;1.33;;;;;;;;;;4996614;28;20066;-65
2022/06/04 09:52:36;;;;;;;4.13;1.13;;;;;;;;;;4995720;28;20124;-66
2022/06/04 09:55:12;;;;;;;5.80;1.02;;;;;;;;;;4997010;28;20164;-65
2022/06/04 09:57:39;;;;;;;4.93;1.33;;;;;;;;;;4999981;28;20423;-65
2022/06/04 10:00:26;;;;;;;3.30;1.33;;;;;;;;;;4999876;28;20156;-65
2022/06/04 10:02:54;;;;;;;8.07;1.70;;;;;;;;;;4998330;28;20190;-65
2022/06/04 10:05:21;;;;;;;3.78;1.25;;;;;;;;;;5000409;28;20038;-65
2022/06/04 10:07:48;;;;;;;4.75;1.35;;;;;;;;;;4998585;28;20052;-65
2022/06/04 10:10:33;;;;;;;3.88;1.40;;;;;;;;;;4999617;28;20108;-65
2022/06/04 10:15:46;;;;;;;4.05;1.33;;;;;;;;;;4998192;28;20104;-65
2022/06/04 10:18:18;;;;;;;4.13;1.40;;;;;;;;;;4998235;28;20045;-65
2022/06/04 10:20:54;;;;;;;3.63;1.48;;;;;;;;;;4997997;28;20540;-65
2022/06/04 10:23:20;;;;;;;4.40;1.48;;;;;;;;;;4995303;28;21678;-65
2022/06/04 10:25:52;;;;;;;4.95;1.58;;;;;;;;;;4998390;28;20033;-65
2022/06/04 10:28:28;;;;;;;5.68;1.33;;;;;;;;;;4999465;28;20061;-64
2022/06/04 10:31:08;;;;;;;3.40;1.33;;;;;;;;;;4997559;28;20065;-64
2022/06/04 10:33:35;;;;;;;5.95;1.60;;;;;;;;;;4998457;28;20121;-65
2022/06/04 10:36:04;;;;;;;7.00;1.65;;;;;;;;;;4998275;28;20401;-65
2022/06/04 10:38:34;;;;;;;5.28;1.50;;;;;;;;;;4998133;28;20200;-66
2022/06/04 10:41:19;;;;;;;6.22;1.63;;;;;;;;;;4996852;28;20172;-66
2022/06/04 10:43:52;;;;;;;5.85;1.50;;;;;;;;;;4995653;28;21654;-66
2022/06/04 10:46:30;;;;;;;9.02;1.90;;;;;;;;;;5012479;28;20498;-66
2022/06/04 10:49:06;;;;;;;4.30;1.50;;;;;;;;;;4995874;28;20073;-66
2022/06/04 10:51:36;;;;;;;4.13;1.70;;;;;;;;;;4996451;28;20080;-66
2022/06/04 10:54:05;;;;;;;3.63;1.25;;;;;;;;;;4998380;28;20070;-66
2022/06/04 10:56:53;;;;;;;6.00;1.70;;;;;;;;;;4997289;28;20145;-66
2022/06/04 10:59:23;;;;;;;3.92;1.67;;;;;;;;;;4997655;28;20516;-65
2022/06/04 11:01:53;;;;;;;4.30;1.70;;;;;;;;;;5002006;28;20038;-65
2022/06/04 11:04:23;;;;;;;4.18;1.55;;;;;;;;;;4997902;28;20058;-65
2022/06/04 11:06:56;;;;;;;5.10;1.77;;;;;;;;;;5014058;28;21715;-65
2022/06/04 11:09:30;;;;;;;4.43;1.58;;;;;;;;;;4998476;28;21840;-65
2022/06/04 11:12:03;;;;;;;3.40;1.40;;;;;;;;;;4998842;28;20086;-65
2022/06/04 11:14:30;;;;;;;4.13;1.60;;;;;;;;;;4999013;28;20391;-66
2022/06/04 11:17:15;;;;;;;6.28;1.92;;;;;;;;;;5000266;28;21798;-65
2022/06/04 11:19:52;;;;;;;4.75;1.40;;;;;;;;;;4999307;28;20057;-65
2022/06/04 11:22:22;;;;;;;3.58;1.63;;;;;;;;;;5012085;28;20042;-66
2022/06/04 11:25:01;;;;;;;7.43;1.95;;;;;;;;;;4998152;28;20038;-65
2022/06/04 11:27:51;;;;;;;3.97;1.63;;;;;;;;;;4997864;28;20041;-65
2022/06/04 11:30:21;;;;;;;8.88;1.98;;;;;;;;;;4993133;28;20192;-65
2022/06/04 11:33:02;;;;;;;4.47;1.75;;;;;;;;;;4998651;28;20042;-65
2022/06/04 11:35:47;;;;;;;3.90;1.60;;;;;;;;;;4997640;28;20115;-65
2022/06/04 11:38:27;;;;;;;7.63;1.60;;;;;;;;;;5030873;28;20046;-66
2022/06/04 11:41:08;;;;;;;5.53;1.63;;;;;;;;;;4999047;28;20030;-64
2022/06/04 11:43:43;;;;;;;4.85;1.63;;;;;;;;;;4999777;28;20157;-66
2022/06/04 11:46:19;;;;;;;6.35;1.75;;;;;;;;;;5001826;28;20048;-65
2022/06/04 11:49:04;;;;;;;5.25;1.90;;;;;;;;;;5002245;28;20049;-65
2022/06/04 11:51:49;;;;;;;6.53;1.95;;;;;;;;;;5001304;28;20038;-65
2022/06/04 11:54:34;;;;;;;4.45;1.70;;;;;;;;;;4999493;28;20034;-65
2022/06/04 11:57:10;;;;;;;6.03;1.75;;;;;;;;;;5002135;28;20056;-66
2022/06/04 11:59:53;;;;;;;4.25;1.90;;;;;;;;;;5001553;28;20149;-65
2022/06/04 12:02:24;;;;;;;4.50;1.50;;;;;;;;;;4998703;28;20057;-66
2022/06/04 12:05:00;;;;;;;6.43;2.10;;;;;;;;;;4997863;28;20053;-65
2022/06/04 12:07:46;;;;;;;3.92;1.58;;;;;;;;;;4996703;28;20084;-65
2022/06/04 12:10:16;;;;;;;6.80;2.00;;;;;;;;;;4999449;28;20069;-65
2022/06/04 12:12:55;;;;;;;7.60;1.83;;;;;;;;;;4998820;28;20210;-66
2022/06/04 12:15:28;;;;;;;5.75;1.90;;;;;;;;;;5030436;28;20042;-66
2022/06/04 12:17:54;;;;;;;;;;;;;;;;;;5029153;28;20382;-66
2022/06/04 12:26:24;;;;;;;7.38;1.75;;;;;;;;;;4999956;28;20120;-65
2022/06/04 12:28:50;;;;;;;5.28;1.80;;;;;;;;;;4998152;28;20056;-64
2022/06/04 12:31:37;;;;;;;4.97;1.70;;;;;;;;;;4997795;28;20061;-66
2022/06/04 12:34:23;;;;;;;4.95;1.90;;;;;;;;;;4997407;28;20046;-65
2022/06/04 12:36:52;;;;;;;6.93;1.80;;;;;;;;;;4998112;28;20034;-65
2022/06/04 12:39:23;;;;;;;7.38;1.75;;;;;;;;;;4997959;28;20072;-66
2022/06/04 12:41:54;;;;;;;6.95;1.95;;;;;;;;;;4996989;28;20061;-64
2022/06/04 12:44:34;;;;;;;6.82;1.80;;;;;;;;;;4995715;28;20577;-65
2022/06/04 12:47:25;;;;;;;6.32;2.05;;;;;;;;;;5012149;28;20063;-65
2022/06/04 12:49:57;;;;;;;5.07;1.77;;;;;;;;;;4996599;28;20049;-66
2022/06/04 12:52:29;;;;;;;4.22;1.70;;;;;;;;;;4996196;28;20049;-65
2022/06/04 12:54:59;;;;;;;6.75;2.00;;;;;;;;;;4995859;28;20073;-65
2022/06/04 12:57:44;;;;;;;7.68;2.03;;;;;;;;;;4994165;28;20049;-65
2022/06/04 13:00:20;;;;;;;5.03;1.80;;;;;;;;;;4996749;28;20042;-65
2022/06/04 13:03:05;;;;;;;4.80;1.70;;;;;;;;;;4996371;28;20049;-65
2022/06/04 13:05:32;;;;;;;6.30;1.80;;;;;;;;;;4995981;28;20042;-65
2022/06/04 13:08:02;;;;;;;6.25;2.08;;;;;;;;;;4996233;28;20045;-65
2022/06/04 13:10:28;;;;;;;4.35;1.85;;;;;;;;;;5027671;28;20099;-65
2022/06/04 13:13:04;;;;;;;3.60;1.65;;;;;;;;;;4995232;28;20083;-65
2022/06/04 13:15:40;;;;;;;3.40;1.67;;;;;;;;;;4995397;28;20038;-66
2022/06/04 13:18:16;;;;;;;5.05;1.75;;;;;;;;;;4997153;28;20066;-66
2022/06/04 13:20:51;;;;;;;6.30;1.70;;;;;;;;;;4996759;28;20172;-65
2022/06/04 13:23:37;;;;;;;5.28;1.67;;;;;;;;;;4996884;28;20535;-65
2022/06/04 13:26:20;;;;;;;6.53;2.20;;;;;;;;;;4995631;28;20033;-66
2022/06/04 13:28:49;;;;;;;4.57;1.70;;;;;;;;;;4996218;28;20383;-65
2022/06/04 13:31:22;;;;;;;6.28;1.65;;;;;;;;;;4998661;28;20057;-65
2022/06/04 13:33:49;;;;;;;6.32;1.70;;;;;;;;;;4998242;28;20460;-65
2022/06/04 13:36:17;;;;;;;8.38;1.75;;;;;;;;;;5001171;28;20046;-66
2022/06/04 13:38:44;;;;;;;12.23;1.77;;;;;;;;;;5013807;28;20356;-66
2022/06/04 13:42:01;;;;;;;4.55;1.60;;;;;;;;;;4999439;28;20049;-66
2022/06/04 13:44:07;;;;;;;4.28;1.80;;;;;;;;;;4998741;28;20058;-66
2022/06/04 13:46:34;;;;;;;4.85;1.58;;;;;;;;;;5000085;28;20066;-66
2022/06/04 13:49:07;;;;;;;4.13;1.55;;;;;;;;;;4999991;28;20042;-66
2022/06/04 13:51:39;;;;;;;3.50;1.50;;;;;;;;;;5001421;28;20577;-66
2022/06/04 13:54:06;;;;;;;5.97;1.50;;;;;;;;;;5001096;28;20037;-66
2022/06/04 13:56:41;;;;;;;4.97;1.35;;;;;;;;;;5002015;28;20571;-66
2022/06/04 13:59:14;;;;;;;4.55;1.42;;;;;;;;;;5000783;28;20069;-65
2022/06/04 14:01:41;;;;;;;4.82;1.50;;;;;;;;;;5000861;28;20137;-65
2022/06/04 14:06:55;;;;;;;5.47;1.40;;;;;;;;;;5008522;28;20072;-65
2022/06/04 14:09:23;;;;;;;3.30;1.45;;;;;;;;;;5013787;28;20042;-65
2022/06/04 14:11:56;;;;;;;3.78;1.50;;;;;;;;;;5005646;28;20045;-65
2022/06/04 14:14:41;;;;;;;5.25;1.67;;;;;;;;;;4999629;28;21695;-65
2022/06/04 14:17:08;;;;;;;5.05;1.60;;;;;;;;;;4999749;28;20034;-66
2022/06/04 14:19:37;;;;;;;3.88;1.33;;;;;;;;;;4998481;28;20041;-65
2022/06/04 14:22:04;;;;;;;7.15;1.50;;;;;;;;;;4999257;28;20596;-66
2022/06/04 14:24:34;;;;;;;8.05;1.45;;;;;;;;;;4997118;28;20054;-65
2022/06/04 14:27:09;;;;;;;3.88;1.10;;;;;;;;;;4999259;28;21041;-66
2022/06/04 14:29:36;;;;;;;3.78;1.30;;;;;;;;;;4998354;28;20169;-64
2022/06/04 14:32:06;;;;;;;4.72;1.27;;;;;;;;;;4998862;28;21901;-66
2022/06/04 14:34:36;;;;;;;6.03;1.88;;;;;;;;;;4997746;28;20085;-66
2022/06/04 14:37:03;;;;;;;6.22;1.50;;;;;;;;;;4997861;28;20055;-65
2022/06/04 14:39:31;;;;;;;3.67;1.45;;;;;;;;;;4998991;28;20037;-65
2022/06/04 14:41:58;;;;;;;6.85;1.42;;;;;;;;;;4998280;28;20061;-66
2022/06/04 14:44:38;;;;;;;7.47;1.70;;;;;;;;;;4998596;28;20389;-68
2022/06/04 14:47:38;;;;;;;4.82;1.48;;;;;;;;;;4999052;28;20050;-68
2022/06/04 14:50:10;;;;;;;7.10;1.77;;;;;;;;;;4998698;28;20049;-67
2022/06/04 14:52:44;;;;;;;5.95;1.33;;;;;;;;;;4997472;28;20048;-68
2022/06/04 14:55:16;;;;;;;8.23;1.48;;;;;;;;;;4998771;28;20081;-67
2022/06/04 14:57:43;;;;;;;5.95;1.60;;;;;;;;;;4997634;28;20042;-68
2022/06/04 15:00:25;;;;;;;4.95;1.65;;;;;;;;;;4998683;28;20348;-68
2022/06/04 15:03:01;;;;;;;9.93;1.50;;;;;;;;;;4996794;28;20137;-68
2022/06/04 15:05:31;;;;;;;4.45;1.58;;;;;;;;;;4997762;28;20379;-69
2022/06/04 15:08:07;;;;;;;3.60;1.50;;;;;;;;;;5000203;28;20042;-66
2022/06/04 15:10:44;;;;;;;4.00;1.67;;;;;;;;;;4999299;28;20034;-68
2022/06/04 15:13:24;;;;;;;5.38;1.40;;;;;;;;;;5001378;28;20072;-69
2022/06/04 15:15:51;;;;;;;4.40;1.27;;;;;;;;;;4999786;28;20128;-70
2022/06/04 15:18:20;;;;;;;4.55;1.33;;;;;;;;;;5000160;28;20411;-67
2022/06/04 15:20:50;;;;;;;3.25;1.27;;;;;;;;;;5000113;28;20041;-68
2022/06/04 15:23:26;;;;;;;5.15;1.52;;;;;;;;;;4999850;28;20115;-65
2022/06/04 15:25:54;;;;;;;7.75;2.40;;;;;;;;;;5000399;28;22179;-68
2022/06/04 15:34:18;;;;;;;;;;;;;;;;;;4959417;28;20130;-68
2022/06/04 15:36:51;;;;;;;6.80;1.70;;;;;;;;;;4960877;28;19918;-69